Lake Worth, FL (33460)

4:24 PM EDT on September 01, 2015 (GMT -0400)
Lake Clarke Shores - Caribbean Rd. East | | Change Station
CLOSE
Current Station
Personal Weather Station
Location: Lake Clarke Shores, FL
Elevation: 16 ft
Nearby Weather Stations

Elev 16 ft 26.63 °N, 80.07 °W | Updated 1 second ago

Partly Cloudy
Partly Cloudy
93.4 °F
Feels Like 108 °F
N
3.1
Wind Variable Wind from NE
Gusts 3.6 mph

Today
High -- | Low -- °F
--% Chance of Precip.
Yesterday
High -- | Low -- °F
Precip. -- in
6:59 AM 7:40 PM
Waning Gibbous, 86% visible
Pressure 30.05 in
Visibility 10.0 miles
Clouds Scattered Clouds 3000 ft
Scattered Clouds 5500 ft
Scattered Clouds 24000 ft
Heat Index 108 °F
Dew Point 77 °F
Humidity 59%
Rainfall 0.00 in
Snow Depth Not available.
UV 7 out of 12
Pollen 4.80 out of 12
Air Quality Not available.
Flu Activity Not available.
METAR KPBI 011953Z 10008KT 10SM SCT030TCU SCT055 SCT240 31/24 A3005 RMK AO2 SLP176 TCU SW-W CB DSNT SW NW T03110239
Pressure 30.05 in
Visibility 10.0 miles
Clouds Scattered Clouds 3000 ft
Scattered Clouds 5500 ft
Scattered Clouds 24000 ft
Heat Index 108 °F
Dew Point 77 °F
Humidity 59%
Rainfall 0.00 in
Snow Depth Not available.
UV 7 out of 12
Pollen 4.80 out of 12
Air Quality Not available.
Flu Activity Not available.
METAR KPBI 011953Z 10008KT 10SM SCT030TCU SCT055 SCT240 31/24 A3005 RMK AO2 SLP176 TCU SW-W CB DSNT SW NW T03110239

10-Day Weather Forecast

×

Almanac

Astronomy

Sep. 01, 2015 Rise Set
Actual Time
Civil Twilight
Nautical Twilight
Astronomical Twilight
Moon
Length of Visible Light
Length of Day
Tomorrow will be .
, % of the Moon is Illuminated

Today's Extremes

State Highs State Lows

Community

WunderPhotos

Upload Photos

1,851,605 photos uploaded!

WunderBlogs® & News

Nearby

Air Quality

  Air Quality AQ Index Pollutant
Not available.

Snow Depth

Station Depth Elevation

Earthquake Activity

City Distance Mag. Time & Date
Minimum magnitude displayed is 2.5.

Coastal Water Temperatures

Place Temperature

Stations

Nearby Weather Stations

Station Location Temp. Windchill Dew Point Humidity Wind Precip. Elev Updated Type